Station: Portable Rfsnsw54  

  Atmospheric Gas Attenuation - ITU Rec 676-11   ----------------- dB/100km -----------------
Date Time Temp RH % AH g/m3 Dew Point Wind Direction Speed kph Gust kph Barometer mB Rainfall Since 9am 24GHz 47GHz 76GHz 122GHz 134GHz 241GHz
08/05 12:20 20.7 20 3.6 -2.7 6 7 1013.1 0 8.8 17.2 19.9 51.4 35.3 117.8
08/05 12:10 20.3 20 3.52 -3 7 9 1013.1 0 8.7 17.2 19.8 51.0 34.7 115.6
08/05 12:00 20.1 21 3.65 -2.6 7 9 1013.1 0 8.9 17.4 20.2 52.2 36.1 120.4
08/05 11:50 20.3 21 3.69 -2.7 7 9 1013.1 0 9.0 17.4 20.3 52.4 36.4 121.5
08/05 11:40 19.9 20 3.44 -3.6 6 7 1013.1 0 8.5 17.2 19.6 50.6 34.1 113.3
08/05 11:30 19.6 25 4.22 -0.6 6 9 1013.1 0 10.1 18.2 22.1 57.2 42.1 141.6
08/05 11:20 19.3 24 3.98 -1.6 7 9 1013.1 0 9.6 18.0 21.4 55.4 39.8 133.4
08/05 11:10 19.6 20 3.38 -3.5 6 7 1013.1 0 8.4 17.2 19.5 50.3 33.6 111.6
08/05 11:00 19 22 3.58 -3.1 6 7 1013.1 0 8.8 17.5 20.3 52.3 35.9 119.5
08/05 10:50 18.8 22 3.54 -3 6 9 1013.1 0 8.7 17.5 20.2 52.1 35.5 118.3
08/05 10:40 18.3 24 3.75 -2.3 6 7 1013.1 0 9.2 17.9 21.0 54.1 37.9 126.6
08/05 10:30 18.2 23 3.57 -3 6 7 1013.1 0 8.8 17.7 20.4 52.7 36.1 120.3
08/05 10:20 18.1 25 3.86 -1.9 6 7 1013.1 0 9.4 18.0 21.4 55.2 39.1 130.9
08/05 10:10 17.7 26 3.92 -1.8 6 7 1013.1 0 9.6 18.2 21.6 56.0 39.9 133.7
08/05 10:00 17.5 28 4.17 -1.3 6 7 1013.1 0 10.1 18.6 22.5 58.2 42.7 143.3
08/05 09:50 16.8 31 4.43 -0.2 7 9 1013.1 0 10.6 19.0 23.5 61.0 45.8 154.3
08/05 09:40 16.4 31 4.33 -0.6 7 9 1013.1 0 10.5 19.0 23.3 60.4 45.0 151.2
08/05 09:30 16.1 32 4.39 -0.4 7 7 1013.1 0 10.6 19.1 23.6 61.1 45.8 154.1
08/05 09:20 15.6 34 4.52 0 7 9 1013.1 0 10.9 19.4 24.2 62.7 47.5 160.0
08/05 09:10 15.4 32 4.2 -0.9 7 9 1013.1 0 10.2 19.0 23.2 60.0 44.1 148.1
08/05 09:00 15.2 31 4.02 -1.6 7 9 1013.1 0.2 9.8 18.8 22.6 58.6 42.3 141.6
08/05 08:50 14.8 35 4.43 -0.4 7 9 1013.1 0.2 10.7 19.4 24.1 62.5 46.9 158.1
08/05 08:40 14.5 35 4.35 -0.6 7 9 1013.1 0.2 10.5 19.4 23.9 62.0 46.2 155.5
08/05 08:30 14.1 39 4.73 0.3 7 7 1013.1 0.2 11.4 20.0 25.3 65.7 50.7 171.2
08/05 08:20 13.6 37 4.35 -0.9 7 9 1013.1 0.2 10.6 19.6 24.2 62.7 46.8 157.2
08/05 08:10 13.1 38 4.34 -0.7 7 9 1013.1 0.2 10.6 19.7 24.3 63.0 46.9 157.8
08/05 08:00 12.7 39 4.34 -0.9 6 7 1013.1 0.2 10.6 19.8 24.4 63.3 47.2 158.6
08/05 07:50 12.1 41 4.4 -0.6 4 6 1013.1 0.2 10.7 20.0 24.8 64.3 48.2 162.1
08/05 07:40 11 50 5.01 1 4 4 1013.1 0.2 12.1 21.1 27.3 71.0 56.0 189.5
08/05 07:30 10 54 5.08 1.2 2 4 1013.1 0.2 12.2 21.4 27.9 72.5 57.6 194.8
08/05 07:20 8.4 57 4.84 0.4 4 6 1013.1 0.2 11.8 21.4 27.5 71.6 55.8 188.4
08/05 07:10 6.3 70 5.18 1.3 0 0 1013.1 0.2 12.6 22.5 29.6 77.0 61.6 208.5
08/05 07:00 5.6 80 5.66 2.5 0 0 1013.1 0.2 13.6 23.4 31.7 82.8 68.4 232.3
08/05 06:50 5.4 80 5.59 2.2 0 0 1013.1 0.2 13.5 23.3 31.5 82.2 67.7 229.6
08/05 06:40 5.3 79 5.48 1.9 0 2 1013.1 0.2 13.3 23.2 31.1 81.2 66.3 224.9
08/05 06:30 4.9 81 5.47 1.9 0 0 1013.1 0.2 13.2 23.3 31.2 81.5 66.5 225.5
08/05 06:20 4.8 81 5.44 1.8 0 0 1013.1 0.2 13.2 23.3 31.1 81.2 66.2 224.4
08/05 06:10 4.8 80 5.37 1.6 0 0 1013.1 0.2 13.0 23.1 30.9 80.5 65.3 221.2
08/05 06:00 5.2 79 5.44 1.8 2 4 1013.1 0.2 13.2 23.2 31.0 80.8 65.9 223.3
08/05 05:50 5.3 78 5.41 1.8 2 6 1013.1 0.2 13.1 23.1 30.8 80.4 65.4 221.6
08/05 05:40 5.9 77 5.56 2.2 0 2 1013.1 0.2 13.4 23.2 31.2 81.4 66.8 226.8
08/05 05:30 6.1 74 5.41 1.9 0 4 1013.1 0.2 13.1 22.9 30.5 79.6 64.7 219.4
08/05 05:20 6.2 72 5.3 1.6 2 4 1013.1 0.2 12.8 22.7 30.1 78.4 63.2 214.2
08/05 05:10 6.4 70 5.22 1.3 4 6 1013.1 0.2 12.7 22.5 29.7 77.3 62.0 210.0
08/05 05:00 5.9 74 5.34 1.7 2 6 1013.1 0.2 12.9 22.8 30.3 79.1 64.0 216.8
08/05 04:50 6.5 73 5.48 2 2 6 1013.1 0.2 13.2 22.9 30.6 79.9 65.3 221.5
08/05 04:40 6.8 72 5.51 2.1 0 4 1013.1 0.2 13.3 22.9 30.6 79.9 65.4 222.0
08/05 04:30 7.1 71 5.54 2.3 2 4 1013.1 0.2 13.3 22.8 30.6 79.9 65.6 222.5
08/05 04:20 7.7 65 5.27 1.5 2 4 1013.1 0.2 12.7 22.3 29.4 76.6 61.7 208.8
08/05 04:10 7.7 65 5.27 1.6 2 4 1013.1 0.2 12.7 22.3 29.4 76.6 61.7 208.8
08/05 04:00 7.7 67 5.44 1.9 4 6 1013.1 0.2 13.1 22.5 30.0 78.3 63.8 216.4
08/05 03:50 7.6 74 5.96 3.2 2 4 1013.1 0.2 14.2 23.4 32.1 83.8 70.5 240.0
08/05 03:40 7.4 78 6.21 3.9 0 2 1013.1 0.2 14.7 23.8 33.2 86.7 74.0 252.1
08/05 03:30 7.4 81 6.44 4.3 0 4 1013.1 0.2 15.2 24.2 34.1 89.1 77.0 262.8
08/05 03:20 8 78 6.45 4.4 2 7 1013.1 0.2 15.2 24.0 33.9 88.6 76.6 261.2
08/05 03:10 8.2 77 6.45 4.4 0 0 1013.1 0.2 15.2 24.0 33.8 88.3 76.4 260.6
08/05 03:00 8.2 78 6.53 4.7 0 0 1013.1 0.2 15.4 24.1 34.1 89.2 77.4 264.2
08/05 02:50 8.5 79 6.75 5.1 2 2 1013.1 0.2 15.9 24.4 34.9 91.2 80.0 273.4
08/05 02:40 8.3 80 6.75 5.1 0 2 1013.1 0.2 15.9 24.4 34.9 91.4 80.2 274.1
08/05 02:30 8.2 79 6.62 4.8 0 4 1013.1 0.2 15.6 24.3 34.5 90.1 78.6 268.4
08/05 02:20 8.3 78 6.58 4.8 0 4 1013.1 0.2 15.5 24.2 34.3 89.6 78.0 266.2
08/05 02:10 8.6 77 6.62 4.9 2 6 1013.1 0.2 15.6 24.2 34.3 89.7 78.2 267.0
08/05 02:00 8.9 74 6.48 4.6 0 4 1013.1 0.2 15.3 23.8 33.6 87.9 76.1 259.6
08/05 01:50 9.3 71 6.38 4.3 0 0 1013.1 0.2 15.0 23.6 33.0 86.4 74.4 253.8
08/05 01:40 9.5 72 6.56 4.8 0 0 1013.1 0.2 15.4 23.8 33.7 88.0 76.5 261.3
08/05 01:30 9.7 71 6.55 4.8 4 6 1013.1 0.2 15.4 23.7 33.5 87.7 76.2 260.2
08/05 01:20 10.5 68 6.6 4.9 4 7 1013.1 0.2 15.5 23.6 33.4 87.3 76.1 259.8
08/05 01:10 11.3 58 5.92 3.4 4 6 1013.1 0.2 14.0 22.4 30.5 79.6 66.8 227.4
08/05 01:00 11.5 60 6.2 4 2 4 1013.1 0.2 14.6 22.7 31.5 82.2 70.1 239.0
08/05 00:50 11.1 60 6.04 3.7 6 9 1013.1 0.2 14.2 22.6 31.0 81.0 68.5 233.2
08/05 00:40 10.6 68 6.64 4.9 4 7 1013.1 0.2 15.5 23.7 33.5 87.7 76.5 261.3
08/05 00:30 10.7 72 7.07 5.8 6 6 1013.1 0.2 16.5 24.3 35.2 92.0 81.9 280.4
08/05 00:10 11.3 69 7.04 5.8 2 4 1013.1 0.2 16.4 24.1 34.8 91.0 80.9 276.9
08/05 00:00 11.8 67 7.05 5.9 0 6 1013.1 0.2 16.4 24.0 34.6 90.6 80.5 275.6
07/05 23:50 12.2 65 7.01 5.8 2 4 1013.1 0.2 16.3 23.8 34.3 89.7 79.6 272.4
07/05 23:40 12.3 62 6.73 5.2 4 7 1013.1 0.2 15.7 23.3 33.2 86.7 76.0 259.7
07/05 23:30 12.3 66 7.17 6.2 4 6 1013.1 0.2 16.6 24.0 34.9 91.2 81.5 279.2
07/05 23:20 13.4 63 7.32 6.6 4 6 1013.1 0.2 16.9 24.0 35.0 91.5 82.3 282.0
07/05 23:10 14.6 50 6.26 4.5 6 7 1013.1 0.2 14.6 22.1 30.5 79.7 68.1 232.5
07/05 23:00 13.7 56 6.63 5.1 4 7 1013.1 0.2 15.4 22.8 32.2 84.2 73.4 250.9
07/05 22:50 14 56 6.75 5.4 4 6 1013.1 0.2 15.6 22.9 32.5 85.1 74.6 255.1
07/05 22:40 14 54 6.51 4.8 2 6 1013.1 0.2 15.1 22.6 31.7 82.7 71.7 244.8
07/05 22:30 13.8 58 6.91 5.7 2 6 1013.1 0.2 16.0 23.2 33.2 86.9 76.8 262.7
07/05 22:20 14.6 53 6.63 5.2 4 6 1013.1 0.2 15.4 22.6 31.9 83.3 72.6 248.1
07/05 22:10 14.9 52 6.63 5.2 4 6 1013.1 0.2 15.3 22.5 31.7 83.0 72.3 247.2
07/05 22:00 15.3 50 6.53 5 6 6 1013.1 0.2 15.1 22.3 31.2 81.6 70.7 241.7
07/05 21:50 16.1 49 6.72 5.6 4 6 1013.1 0.2 15.5 22.4 31.6 82.6 72.3 247.3
07/05 21:40 16.7 42 5.97 3.9 7 9 1013.1 0.2 13.9 21.2 28.7 74.9 63.0 214.8
07/05 21:30 16.6 45 6.36 4.8 7 7 1013.1 0.2 14.7 21.7 30.1 78.7 67.6 230.9
07/05 21:20 17.1 41 5.97 3.9 7 9 1013.1 0.2 13.9 21.1 28.6 74.5 62.7 213.7
07/05 21:10 16.8 42 6 3.9 9 11 1013.1 0.2 13.9 21.2 28.8 75.1 63.3 215.7
07/05 21:00 16.9 43 6.18 4.3 9 11 1013.1 0.2 14.3 21.4 29.4 76.7 65.3 222.7
07/05 20:50 17 40 5.79 3.3 9 11 1013.1 0.2 13.5 20.8 28.0 73.0 60.7 206.8
07/05 20:40 16.8 39 5.58 2.8 9 13 1013.1 0.2 13.1 20.6 27.4 71.2 58.5 198.9
07/05 20:30 16.3 42 5.83 3.3 6 7 1013.1 0.2 13.6 21.1 28.4 74.0 61.7 210.2
07/05 20:20 16.7 42 5.97 3.9 4 7 1013.1 0.2 13.9 21.2 28.7 74.9 63.0 214.8
07/05 20:10 17 40 5.79 3.5 6 7 1013.1 0.2 13.5 20.8 28.0 73.0 60.7 206.8
07/05 20:00 17.5 39 5.81 3.5 6 7 1013.1 0.2 13.5 20.8 27.9 72.7 60.6 206.3
07/05 19:50 18.1 39 6.03 4 7 11 1013.1 0.2 14.0 20.9 28.5 74.2 62.6 213.5
07/05 19:40 19.2 32 5.28 2.3 9 11 1013.1 0.2 12.4 19.7 25.6 66.5 53.5 181.7

Last Refresh: 08-May-2026 12:09:36

Bureau of Meteorology